Terminal Aerodrome Forecast
Issued by NWS

Home | Current Version | Previous Version | Text Only | Print | Product List | Glossary On
Versions: 1 2 3 4 5 6 7 8 9 10 11 12 13 14 15 16 17 18 19 20 21 22 23
000
FTUS41 KBGM 261100
TAFITH
TAF
KITH 261138Z 2612/2712 08005KT P6SM OVC100
      TEMPO 2612/2615 2SM -SN OVC015
     FM261500 11006KT 1SM -SN OVC009
     FM270300 04007KT 2SM -SN OVC012
     FM270800 36008KT 3SM -SHSN OVC012=

USA.gov is the U.S. government's official web portal to all federal, state and local government web resources and services.